Earlysville, VA

3:03 PM EDT on April 19, 2015 (GMT -0400)
Beau Mont Farm | Change Station
CLOSE
Current Station
Personal Weather Station
Location: Charlottesville, VA
Elevation: 488 ft
Nearby Weather Stations
Active Advisory: Areal Flood Watch

Elev 488 ft 38.13 °N, 78.53 °W | Updated 3 minutes ago

Overcast
Overcast
67.8 °F
Feels Like 67.8 °F
N
-
Wind Variable Wind from North

Today
High -- | Low -- °F
--% Chance of Precip.
Yesterday
High -- | Low -- °F
Precip. -- in
6:33 AM 7:53 PM
New Moon, 1% visible
Pressure 30.01 in
Visibility 10.0 miles
Clouds Overcast 10000 ft
Dew Point 53 °F
Humidity 59%
Rainfall -999.00 in
Snow Depth Not available.
UV 3 out of 12
Pollen 3.00 out of 12
Air Quality Not available.
Flu Activity Local Activity
METAR KCHO 191853Z 09007KT 050V120 10SM OVC100 20/07 A3003 RMK AO2 RAE07 SLP163 P0000 T02000067

More Conditions Fewer Conditions

Pressure 30.01 in
Visibility 10.0 miles
Clouds Overcast 10000 ft
Dew Point 53 °F
Humidity 59%
Rainfall -999.00 in
Snow Depth Not available.
UV 3 out of 12
Pollen 3.00 out of 12
Air Quality Not available.
Flu Activity Local Activity
METAR KCHO 191853Z 09007KT 050V120 10SM OVC100 20/07 A3003 RMK AO2 RAE07 SLP163 P0000 T02000067

More Conditions Fewer Conditions

10-Day Weather Forecast

Almanac

Astronomy

Apr. 19, 2015 Rise Set
Actual Time 6:33 AM EDT 7:53 PM EDT
Civil Twilight 6:05 AM EDT 8:21 PM EDT
Nautical Twilight 5:32 AM EDT 8:54 PM EDT
Astronomical Twilight 4:58 AM EDT 9:28 PM EDT
Moon 7:14 AM EDT 9:07 PM EDT
Length of Visible Light 14h 15m
Length of Day
13h 20m
Tomorrow will be 2m 17s longer.
New Moon, 1% of the Moon is Illuminated
Today
New Moon
Apr 25
First Quarter
May 3
Full
May 11
Last Quarter
May 18
New

Today's Extremes

State Highs State Lows

Community

WunderPhotos

Upload Photos

1,814,915 photos uploaded!

Nearby

Snow Depth

Station Depth Elevation
No new snow has been reported.

Earthquake Activity

City Distance Mag. Time & Date
No recent earthquake activity has been reported nearby.
Minimum magnitude displayed is 2.5.

Coastal Water Temperatures

Place Temperature
No Stations Reporting

Nearby Weather Stations